Berlin, New Hampshire
Current Conditions -  °F | °C
As of 3:52 PM on Tuesday 21 Oct 2014 (Local Time) from KBML Reporting Station
Light Rain Light Rain  
Wind Chill:   Ceiling: 1800
Heat Index:   Visibility: 10mi
Dew Point:   Wind: 6mph
Humidity: 93%   Direction: 340°NNW
Pressure: 30.01"   Gusts: NA
Location:  44.47°N, 71.18°W
Report Text: KBML 211952Z AUTO 34005KT 10SM -RA OVC018 08/07 A3001 RMK AO2 SLP174 P0002 T00830072
Loading
Personal Weather Stations






























Interactive Weather Map New forecast layout! Learn more

10-Day Weather Forecast

Advertisements
Track Severe Weather on mobile